createdAt,value
2022-09-18T00:01:32.359Z,2.03
2022-09-18T00:04:02.297Z,1.55
2022-09-18T00:06:32.213Z,2.85
2022-09-18T00:09:01.547Z,1.88
2022-09-18T00:11:34.284Z,1.60
2022-09-18T00:14:01.560Z,1.70
2022-09-18T00:16:29.026Z,2.05
2022-09-18T00:18:56.629Z,1.73
2022-09-18T00:21:25.386Z,1.60
2022-09-18T00:23:57.675Z,2.30
2022-09-18T00:26:25.848Z,1.60
2022-09-18T00:28:55.463Z,2.00
2022-09-18T00:31:26.427Z,1.98
2022-09-18T00:33:54.366Z,1.88
2022-09-18T00:36:22.519Z,1.80
2022-09-18T00:38:50.290Z,1.50
2022-09-18T00:41:29.635Z,1.90
2022-09-18T00:44:35.446Z,1.80
2022-09-18T00:47:11.707Z,1.98
2022-09-18T00:49:44.494Z,1.80
2022-09-18T00:52:13.584Z,1.55
2022-09-18T00:54:43.419Z,1.80
2022-09-18T00:57:16.039Z,1.45
2022-09-18T00:59:46.347Z,1.40
2022-09-18T01:02:13.767Z,1.33
2022-09-18T01:04:41.154Z,1.65
2022-09-18T01:07:37.099Z,1.75
2022-09-18T01:10:18.631Z,1.48
2022-09-18T01:13:00.382Z,1.80
2022-09-18T01:15:52.508Z,2.08
2022-09-18T01:19:02.766Z,1.60
2022-09-18T01:21:41.719Z,2.15
2022-09-18T01:24:33.068Z,1.58
2022-09-18T01:27:04.734Z,1.45
2022-09-18T01:29:44.239Z,2.53
2022-09-18T01:32:19.247Z,2.05
2022-09-18T01:34:56.390Z,1.52
2022-09-18T01:37:35.756Z,1.50
2022-09-18T01:40:17.620Z,1.50
2022-09-18T01:42:47.957Z,2.78
2022-09-18T01:45:20.867Z,2.78
2022-09-18T01:47:54.396Z,2.47
2022-09-18T01:50:22.483Z,2.53
2022-09-18T01:53:38.227Z,1.90
2022-09-18T01:56:17.786Z,2.83
2022-09-18T01:58:45.700Z,2.28
2022-09-18T02:01:15.807Z,2.80
2022-09-18T02:03:50.609Z,2.63
2022-09-18T02:09:00.857Z,3.08
2022-09-18T02:11:29.130Z,3.33
2022-09-18T02:14:14.534Z,2.47
2022-09-18T02:17:08.733Z,2.90
2022-09-18T02:19:56.593Z,3.10
2022-09-18T02:22:27.696Z,3.53
2022-09-18T02:24:59.494Z,3.00
2022-09-18T02:27:27.670Z,3.28
2022-09-18T02:29:58.234Z,3.20
2022-09-18T02:32:25.719Z,3.33
2022-09-18T02:34:53.038Z,3.72
2022-09-18T02:37:34.493Z,3.42
2022-09-18T02:40:28.267Z,2.88
2022-09-18T02:43:10.661Z,3.30
2022-09-18T02:45:51.813Z,5.00
2022-09-18T02:48:30.489Z,2.83
2022-09-18T02:51:07.275Z,3.40
2022-09-18T02:54:01.830Z,3.50
2022-09-18T02:56:46.979Z,3.25
2022-09-18T02:59:46.616Z,2.88
2022-09-18T03:02:16.211Z,3.35
2022-09-18T03:04:44.408Z,2.92
2022-09-18T03:07:18.014Z,2.88
2022-09-18T03:09:47.553Z,2.85
2022-09-18T03:12:16.491Z,3.00
2022-09-18T03:14:48.762Z,2.42
2022-09-18T03:17:17.219Z,2.40
2022-09-18T03:19:45.828Z,2.65
2022-09-18T03:22:13.844Z,2.30
2022-09-18T03:24:42.544Z,2.10
2022-09-18T03:27:10.557Z,3.33
2022-09-18T03:29:37.919Z,2.05
2022-09-18T03:32:05.379Z,2.10
2022-09-18T03:34:41.347Z,2.40
2022-09-18T03:37:08.762Z,2.10
2022-09-18T03:39:36.087Z,2.03
2022-09-18T03:42:05.284Z,2.20
2022-09-18T03:44:32.517Z,2.78
2022-09-18T03:47:04.135Z,2.50
2022-09-18T03:49:31.958Z,2.00
2022-09-18T03:51:59.345Z,2.53
2022-09-18T03:54:32.201Z,2.28
2022-09-18T03:57:12.046Z,2.55
2022-09-18T03:59:51.869Z,2.00
2022-09-18T04:02:37.771Z,2.88
2022-09-18T04:05:23.561Z,2.50
2022-09-18T04:08:09.454Z,2.10
2022-09-18T04:10:59.898Z,2.30
2022-09-18T04:13:27.642Z,2.95
2022-09-18T04:16:00.620Z,2.67
2022-09-18T04:18:29.521Z,3.70
2022-09-18T04:20:57.898Z,3.75
2022-09-18T04:23:25.296Z,3.80
2022-09-18T04:25:52.561Z,4.22
2022-09-18T04:28:20.178Z,4.30
2022-09-18T04:30:49.354Z,4.25
2022-09-18T04:33:16.762Z,5.05
2022-09-18T04:35:44.033Z,5.60
2022-09-18T04:38:12.209Z,4.30
2022-09-18T04:40:39.591Z,4.50
2022-09-18T04:43:06.898Z,4.40
2022-09-18T04:45:34.484Z,4.25
2022-09-18T04:48:02.202Z,4.18
2022-09-18T04:50:30.854Z,3.70
2022-09-18T04:53:10.187Z,3.63
2022-09-18T04:55:37.671Z,3.28
2022-09-18T04:58:05.390Z,4.25
2022-09-18T05:00:36.009Z,3.58
2022-09-18T05:03:04.427Z,2.85
2022-09-18T05:05:33.911Z,3.00
2022-09-18T05:08:02.295Z,3.22
2022-09-18T05:10:30.078Z,2.67
2022-09-18T05:12:57.502Z,3.17
2022-09-18T05:15:24.938Z,2.60
2022-09-18T05:18:00.917Z,3.30
2022-09-18T05:20:28.768Z,4.00
2022-09-18T05:23:01.591Z,3.08
2022-09-18T05:25:29.690Z,2.90
2022-09-18T05:27:59.472Z,2.67
2022-09-18T05:30:31.189Z,2.90
2022-09-18T05:33:05.226Z,2.42
2022-09-18T05:35:35.175Z,2.60
2022-09-18T05:38:03.129Z,2.53
2022-09-18T05:40:37.559Z,2.33
2022-09-18T05:43:05.806Z,4.30
2022-09-18T05:45:35.165Z,2.33
2022-09-18T05:48:07.853Z,2.35
2022-09-18T05:50:38.950Z,2.80
2022-09-18T05:53:13.417Z,2.85
2022-09-18T05:55:48.407Z,2.30
2022-09-18T05:58:17.975Z,2.13
2022-09-18T06:00:46.062Z,2.88
2022-09-18T06:03:20.450Z,2.80
2022-09-18T06:05:54.971Z,2.30
2022-09-18T06:08:23.354Z,1.55
2022-09-18T06:10:50.761Z,2.13
2022-09-18T06:13:19.151Z,1.60
2022-09-18T06:15:54.493Z,1.63
2022-09-18T06:18:33.083Z,1.83
2022-09-18T06:21:02.119Z,1.88
2022-09-18T06:23:31.097Z,2.25
2022-09-18T06:26:09.423Z,1.50
2022-09-18T06:28:40.610Z,1.80
2022-09-18T06:31:09.723Z,1.58
2022-09-18T06:33:53.885Z,1.73
2022-09-18T06:36:21.147Z,3.30
2022-09-18T06:39:01.063Z,2.45
2022-09-18T06:41:28.470Z,2.20
2022-09-18T06:43:56.118Z,1.80
2022-09-18T06:46:32.536Z,2.45
2022-09-18T06:49:10.325Z,2.35
2022-09-18T06:51:42.755Z,2.67
2022-09-18T06:54:13.258Z,3.15
2022-09-18T06:56:42.599Z,2.65
2022-09-18T06:59:12.594Z,2.17
2022-09-18T07:01:40.873Z,1.88
2022-09-18T07:04:24.362Z,1.50
2022-09-18T07:06:52.096Z,1.92
2022-09-18T07:09:19.409Z,1.95
2022-09-18T07:11:49.618Z,1.58
2022-09-18T07:14:17.315Z,1.80
2022-09-18T07:16:44.550Z,1.25
2022-09-18T07:19:12.840Z,1.30
2022-09-18T07:21:40.349Z,1.88
2022-09-18T07:24:09.136Z,1.20
2022-09-18T07:26:36.681Z,1.27
2022-09-18T07:29:09.866Z,1.70
2022-09-18T07:31:38.177Z,2.15
2022-09-18T07:34:09.245Z,1.40
2022-09-18T07:36:36.498Z,1.35
2022-09-18T07:39:05.156Z,2.40
2022-09-18T07:41:44.024Z,1.73
2022-09-18T07:44:11.823Z,1.48
2022-09-18T07:46:39.103Z,0.90
2022-09-18T07:49:08.931Z,1.67
2022-09-18T07:51:37.142Z,1.50
2022-09-18T07:54:06.434Z,1.10
2022-09-18T07:57:08.880Z,1.98
2022-09-18T07:59:49.706Z,2.17
2022-09-18T08:02:17.113Z,1.90
2022-09-18T08:04:44.603Z,2.60
2022-09-18T08:07:35.490Z,1.30
2022-09-18T08:10:21.468Z,1.98
2022-09-18T08:12:59.654Z,1.95
2022-09-18T08:15:36.534Z,1.75
2022-09-18T08:18:11.930Z,1.83
2022-09-18T08:21:06.246Z,2.25
2022-09-18T08:23:42.295Z,1.48
2022-09-18T08:26:09.687Z,1.98
2022-09-18T08:28:37.056Z,1.75
2022-09-18T08:31:06.084Z,1.88
2022-09-18T08:33:33.434Z,1.85
2022-09-18T08:36:01.428Z,1.80
2022-09-18T08:38:34.458Z,1.70
2022-09-18T08:41:23.086Z,2.05
2022-09-18T08:44:07.374Z,1.80
2022-09-18T08:46:52.904Z,1.70
2022-09-18T08:49:38.811Z,1.80
2022-09-18T08:52:14.894Z,1.98
2022-09-18T08:54:57.626Z,2.13
2022-09-18T08:57:42.825Z,2.10
2022-09-18T09:00:37.291Z,2.47
2022-09-18T09:03:44.080Z,2.80
2022-09-18T09:06:52.120Z,3.15
2022-09-18T09:09:34.493Z,3.47
2022-09-18T09:12:27.660Z,3.63
2022-09-18T09:15:21.870Z,2.95
2022-09-18T09:18:18.686Z,3.40
2022-09-18T09:20:55.950Z,2.70
2022-09-18T09:23:34.469Z,2.22
2022-09-18T09:26:13.207Z,1.98
2022-09-18T09:29:11.917Z,2.00
2022-09-18T09:32:07.807Z,2.13
2022-09-18T09:35:22.077Z,1.83
2022-09-18T09:38:31.898Z,2.00
2022-09-18T09:41:09.490Z,1.92
2022-09-18T09:43:48.384Z,1.90
2022-09-18T09:46:42.676Z,1.90
2022-09-18T09:49:33.932Z,1.77
2022-09-18T09:52:35.557Z,1.60
2022-09-18T09:55:27.135Z,1.80
2022-09-18T09:58:15.705Z,1.80
2022-09-18T10:01:17.412Z,1.73
2022-09-18T10:03:59.760Z,1.83
2022-09-18T10:06:43.903Z,2.28
2022-09-18T10:09:23.946Z,2.05
2022-09-18T10:12:11.930Z,2.15
2022-09-18T10:14:42.079Z,1.88
2022-09-18T10:17:12.431Z,1.92
2022-09-18T10:19:42.843Z,1.75
2022-09-18T10:22:12.896Z,1.60
2022-09-18T10:24:58.383Z,2.08
2022-09-18T10:27:27.285Z,2.45
2022-09-18T10:29:54.716Z,1.85
2022-09-18T10:32:42.296Z,1.95
2022-09-18T10:35:42.563Z,2.13
2022-09-18T10:38:32.401Z,2.22
2022-09-18T10:41:26.924Z,2.50
2022-09-18T10:44:01.786Z,1.92
2022-09-18T10:46:34.149Z,2.00
2022-09-18T10:49:24.929Z,2.47
2022-09-18T10:52:27.545Z,2.00
2022-09-18T10:55:07.372Z,2.08
2022-09-18T10:57:39.605Z,1.48
2022-09-18T11:00:12.536Z,2.00
2022-09-18T11:02:46.288Z,1.80
2022-09-18T11:05:19.009Z,1.70
2022-09-18T11:07:50.618Z,2.20
2022-09-18T11:10:22.260Z,1.80
2022-09-18T11:12:59.836Z,1.90
2022-09-18T11:15:37.102Z,1.42
2022-09-18T11:18:07.556Z,1.60
2022-09-18T11:20:46.537Z,1.58
2022-09-18T11:23:21.302Z,1.48
2022-09-18T11:26:28.872Z,2.00
2022-09-18T11:29:34.380Z,1.50
2022-09-18T11:32:17.118Z,1.50
2022-09-18T11:34:56.117Z,2.00
2022-09-18T11:37:39.677Z,2.13
2022-09-18T11:40:29.366Z,1.20
2022-09-18T11:42:58.825Z,0.90
2022-09-18T11:46:03.973Z,0.57
2022-09-18T11:48:51.756Z,0.95
2022-09-18T11:51:28.299Z,0.75
2022-09-18T11:54:08.359Z,0.90
2022-09-18T11:56:48.850Z,1.13
2022-09-18T11:59:39.516Z,0.80
2022-09-18T12:02:23.154Z,0.82
2022-09-18T12:05:14.498Z,1.10
2022-09-18T12:08:07.922Z,0.82
2022-09-18T12:11:06.027Z,1.02
2022-09-18T12:14:01.127Z,0.70
2022-09-18T12:16:55.605Z,0.88
2022-09-18T12:19:40.330Z,0.50
2022-09-18T12:22:32.798Z,0.47
2022-09-18T12:25:09.717Z,0.90
2022-09-18T12:28:07.143Z,0.90
2022-09-18T12:30:59.058Z,0.80
2022-09-18T12:33:44.469Z,0.85
2022-09-18T12:36:53.631Z,0.80
2022-09-18T12:39:36.246Z,1.00
2022-09-18T12:42:24.374Z,0.95
2022-09-18T12:45:17.514Z,1.40
2022-09-18T12:48:06.001Z,1.13
2022-09-18T12:50:39.033Z,1.25
2022-09-18T12:53:36.130Z,1.90
2022-09-18T12:56:13.170Z,1.75
2022-09-18T12:59:27.900Z,2.38
2022-09-18T13:02:06.473Z,2.20
2022-09-18T13:04:40.509Z,2.30
2022-09-18T13:07:24.538Z,1.98
2022-09-18T13:09:54.812Z,2.17
2022-09-18T13:12:30.435Z,1.90
2022-09-18T13:15:29.766Z,2.03
2022-09-18T13:18:09.038Z,2.28
2022-09-18T13:20:43.710Z,2.85
2022-09-18T13:23:18.998Z,1.98
2022-09-18T13:25:49.297Z,1.80
2022-09-18T13:28:20.446Z,1.65
2022-09-18T13:31:11.081Z,1.17
2022-09-18T13:33:38.472Z,1.45
2022-09-18T13:36:06.084Z,1.20
2022-09-18T13:38:34.194Z,1.25
2022-09-18T13:41:08.534Z,1.13
2022-09-18T13:43:53.160Z,1.00
2022-09-18T13:46:40.442Z,1.58
2022-09-18T13:49:41.722Z,1.55
2022-09-18T13:52:29.469Z,1.10
2022-09-18T13:55:01.137Z,1.10
2022-09-18T13:57:32.645Z,1.30
2022-09-18T14:00:06.976Z,2.05
2022-09-18T14:02:43.158Z,0.90
2022-09-18T14:05:38.415Z,1.33
2022-09-18T14:08:21.383Z,2.45
2022-09-18T14:11:11.443Z,0.95
2022-09-18T14:13:41.599Z,1.10
2022-09-18T14:16:20.546Z,1.13
2022-09-18T14:18:47.818Z,1.10
2022-09-18T14:21:18.175Z,1.00
2022-09-18T14:23:45.990Z,1.60
2022-09-18T14:26:28.621Z,2.63
2022-09-18T14:29:12.060Z,1.15
2022-09-18T14:31:46.971Z,1.20
2022-09-18T14:34:21.205Z,1.83
2022-09-18T14:36:58.585Z,1.20
2022-09-18T14:39:29.249Z,1.60
2022-09-18T14:42:01.605Z,1.10
2022-09-18T14:44:30.517Z,1.17
2022-09-18T14:47:02.633Z,1.20
2022-09-18T14:49:37.075Z,1.00
2022-09-18T14:52:26.346Z,1.10
2022-09-18T14:54:57.196Z,1.10
2022-09-18T14:57:28.807Z,1.23
2022-09-18T14:59:59.072Z,0.95
2022-09-18T15:02:33.220Z,1.33
2022-09-18T15:05:03.399Z,1.40
2022-09-18T15:07:30.943Z,0.88
2022-09-18T15:10:01.296Z,0.80
2022-09-18T15:12:31.523Z,1.13
2022-09-18T15:14:59.033Z,0.93
2022-09-18T15:17:28.309Z,1.80
2022-09-18T15:20:13.895Z,1.38
2022-09-18T15:22:41.658Z,0.90
2022-09-18T15:25:13.454Z,0.95
2022-09-18T15:27:41.620Z,0.70
2022-09-18T15:30:20.590Z,1.17
2022-09-18T15:33:01.039Z,0.90
2022-09-18T15:35:32.094Z,0.80
2022-09-18T15:38:03.407Z,1.30
2022-09-18T15:40:37.314Z,1.27
2022-09-18T15:43:30.577Z,0.90
2022-09-18T15:46:12.947Z,0.80
2022-09-18T15:48:48.092Z,0.98
2022-09-18T15:51:24.297Z,0.60
2022-09-18T15:54:06.036Z,0.95
2022-09-18T15:56:34.271Z,0.75
2022-09-18T15:59:04.877Z,0.98
2022-09-18T16:01:35.670Z,0.70
2022-09-18T16:04:08.555Z,1.08
2022-09-18T16:06:42.512Z,1.02
2022-09-18T16:09:23.999Z,1.17
2022-09-18T16:11:52.113Z,1.33
2022-09-18T16:14:43.029Z,1.50
2022-09-18T16:17:53.851Z,1.10
2022-09-18T16:20:57.654Z,1.30
2022-09-18T16:23:50.688Z,1.13
2022-09-18T16:26:32.867Z,1.05
2022-09-18T16:29:06.365Z,0.80
2022-09-18T16:31:35.864Z,1.38
2022-09-18T16:34:17.736Z,1.10
2022-09-18T16:36:46.635Z,0.70
2022-09-18T16:39:16.059Z,0.68
2022-09-18T16:41:43.962Z,1.50
2022-09-18T16:44:13.620Z,0.93
2022-09-18T16:46:42.260Z,0.70
2022-09-18T16:49:15.793Z,1.05
2022-09-18T16:51:43.074Z,1.17
2022-09-18T16:54:10.314Z,1.63
2022-09-18T16:56:51.597Z,1.60
2022-09-18T16:59:28.011Z,1.50
2022-09-18T17:02:04.788Z,1.42
2022-09-18T17:04:33.772Z,1.17
2022-09-18T17:07:01.693Z,1.65
2022-09-18T17:09:29.168Z,1.05
2022-09-18T17:11:56.597Z,0.90
2022-09-18T17:14:24.737Z,0.95
2022-09-18T17:16:52.266Z,0.95
2022-09-18T17:19:19.790Z,0.50
2022-09-18T17:21:47.343Z,0.73
2022-09-18T17:24:14.845Z,0.70
2022-09-18T17:26:42.248Z,0.90
2022-09-18T17:29:11.333Z,1.10
2022-09-18T17:31:38.768Z,1.42
2022-09-18T17:34:06.160Z,1.20
2022-09-18T17:36:36.708Z,0.70
2022-09-18T17:39:04.648Z,0.80
2022-09-18T17:41:32.742Z,0.60
2022-09-18T17:44:00.694Z,1.17
2022-09-18T17:46:28.076Z,0.90
2022-09-18T17:48:57.675Z,0.80
2022-09-18T17:51:28.747Z,1.08
2022-09-18T17:53:59.293Z,1.10
2022-09-18T17:56:29.901Z,1.10
2022-09-18T17:59:02.639Z,2.90
2022-09-18T18:01:30.640Z,4.32
2022-09-18T18:03:58.167Z,2.13
2022-09-18T18:06:25.962Z,1.50
2022-09-18T18:08:53.235Z,1.58
2022-09-18T18:11:22.815Z,1.95
2022-09-18T18:13:51.476Z,1.70
2022-09-18T18:16:30.695Z,2.30
2022-09-18T18:19:04.016Z,2.10
2022-09-18T18:21:32.993Z,1.90
2022-09-18T18:24:03.746Z,1.88
2022-09-18T18:26:31.493Z,1.77
2022-09-18T18:28:58.787Z,1.95
2022-09-18T18:31:26.662Z,2.25
2022-09-18T18:33:55.490Z,2.05
2022-09-18T18:36:30.933Z,2.20
2022-09-18T18:39:00.272Z,1.60
2022-09-18T18:41:29.799Z,1.27
2022-09-18T18:43:59.933Z,1.33
2022-09-18T18:46:29.064Z,0.90
2022-09-18T18:49:01.743Z,1.20
2022-09-18T18:51:36.043Z,1.35
2022-09-18T18:54:05.306Z,1.00
2022-09-18T18:56:35.208Z,1.20
2022-09-18T18:59:04.356Z,0.95
2022-09-18T19:01:32.705Z,0.90
2022-09-18T19:04:03.434Z,1.20
2022-09-18T19:06:31.310Z,1.10
2022-09-18T19:09:04.218Z,1.05
2022-09-18T19:11:32.887Z,1.00
2022-09-18T19:14:00.471Z,1.75
2022-09-18T19:16:29.362Z,1.10
2022-09-18T19:18:59.626Z,1.30
2022-09-18T19:21:28.366Z,1.35
2022-09-18T19:23:59.101Z,1.10
2022-09-18T19:26:28.583Z,1.33
2022-09-18T19:28:58.773Z,1.20
2022-09-18T19:31:28.092Z,1.50
2022-09-18T19:33:56.151Z,1.23
2022-09-18T19:36:26.229Z,1.50
2022-09-18T19:38:55.951Z,1.50
2022-09-18T19:41:38.737Z,1.83
2022-09-18T19:44:31.338Z,1.50
2022-09-18T19:47:01.991Z,1.50
2022-09-18T19:49:33.402Z,1.40
2022-09-18T19:52:02.596Z,1.73
2022-09-18T19:54:30.935Z,1.35
2022-09-18T19:56:59.123Z,1.60
2022-09-18T19:59:26.389Z,1.65
2022-09-18T20:01:54.583Z,1.80
2022-09-18T20:04:21.974Z,1.35
2022-09-18T20:06:49.252Z,1.40
2022-09-18T20:09:16.637Z,2.75
2022-09-18T20:11:48.036Z,1.48
2022-09-18T20:14:16.081Z,1.70
2022-09-18T20:16:43.425Z,1.50
2022-09-18T20:19:10.702Z,1.60
2022-09-18T20:21:38.038Z,1.73
2022-09-18T20:24:05.914Z,1.42
2022-09-18T20:26:33.310Z,2.33
2022-09-18T20:29:00.661Z,1.67
2022-09-18T20:31:28.098Z,1.48
2022-09-18T20:33:56.995Z,1.80
2022-09-18T20:36:25.707Z,1.70
2022-09-18T20:38:57.995Z,1.77
2022-09-18T20:41:29.598Z,1.90
2022-09-18T20:44:03.171Z,2.40
2022-09-18T20:46:34.002Z,1.55
2022-09-18T20:49:04.009Z,1.67
2022-09-18T20:51:34.743Z,1.80
2022-09-18T20:54:04.512Z,1.88
2022-09-18T20:56:36.024Z,2.70
2022-09-18T20:59:05.011Z,1.88
2022-09-18T21:01:41.912Z,2.10
2022-09-18T21:04:17.101Z,1.50
2022-09-18T21:06:51.619Z,1.25
2022-09-18T21:09:18.886Z,1.63
2022-09-18T21:11:46.254Z,1.45
2022-09-18T21:14:17.904Z,2.05
2022-09-18T21:16:45.218Z,2.08
2022-09-18T21:19:14.300Z,2.10
2022-09-18T21:21:41.747Z,1.73
2022-09-18T21:24:09.919Z,2.20
2022-09-18T21:26:43.670Z,2.53
2022-09-18T21:29:12.876Z,1.75
2022-09-18T21:31:44.413Z,2.00
2022-09-18T21:34:13.875Z,2.55
2022-09-18T21:36:44.837Z,2.03
2022-09-18T21:39:13.272Z,2.05
2022-09-18T21:41:45.783Z,1.70
2022-09-18T21:44:21.534Z,2.10
2022-09-18T21:46:49.573Z,2.05
2022-09-18T21:49:16.868Z,2.67
2022-09-18T21:51:44.420Z,2.70
2022-09-18T21:54:18.444Z,1.83
2022-09-18T21:56:51.962Z,1.92
2022-09-18T21:59:20.930Z,1.88
2022-09-18T22:01:52.831Z,2.28
2022-09-18T22:04:23.040Z,1.92
2022-09-18T22:06:50.661Z,2.00
2022-09-18T22:09:38.050Z,2.35
2022-09-18T22:12:07.098Z,2.30
2022-09-18T22:14:35.439Z,1.88
2022-09-18T22:17:06.069Z,2.60
2022-09-18T22:19:36.975Z,2.63
2022-09-18T22:22:06.769Z,2.08
2022-09-18T22:24:34.283Z,2.08
2022-09-18T22:27:07.930Z,2.13
2022-09-18T22:29:38.324Z,2.38
2022-09-18T22:32:06.302Z,2.85
2022-09-18T22:34:36.806Z,2.45
2022-09-18T22:37:05.053Z,2.30
2022-09-18T22:39:32.354Z,2.35
2022-09-18T22:41:59.799Z,2.70
2022-09-18T22:44:27.163Z,2.80
2022-09-18T22:46:54.511Z,2.53
2022-09-18T22:49:23.210Z,2.25
2022-09-18T22:51:51.349Z,2.30
2022-09-18T22:54:23.844Z,3.28
2022-09-18T22:56:52.194Z,2.58
2022-09-18T22:59:21.999Z,1.95
2022-09-18T23:01:51.831Z,2.40
2022-09-18T23:04:20.897Z,2.33
2022-09-18T23:06:49.132Z,2.15
2022-09-18T23:09:18.179Z,2.88
2022-09-18T23:11:47.937Z,2.88
2022-09-18T23:14:18.611Z,2.83
2022-09-18T23:16:46.501Z,2.65
2022-09-18T23:19:16.727Z,2.50
2022-09-18T23:21:44.062Z,2.63
2022-09-18T23:24:12.298Z,3.38
2022-09-18T23:26:41.999Z,3.67
2022-09-18T23:29:12.679Z,2.90
2022-09-18T23:31:42.328Z,2.67
2022-09-18T23:34:14.429Z,2.20
2022-09-18T23:36:44.450Z,2.40
2022-09-18T23:39:21.336Z,2.88
2022-09-18T23:41:50.165Z,2.97
2022-09-18T23:44:19.192Z,2.97
2022-09-18T23:46:47.549Z,3.25
2022-09-18T23:49:16.478Z,3.28
2022-09-18T23:51:48.290Z,2.50
2022-09-18T23:54:18.296Z,3.08
2022-09-18T23:56:46.784Z,2.95
2022-09-18T23:59:16.488Z,2.63
